Time;durP1;ratioP1;P1;durP2;ratioP2;P2;SDS_P1;SDS_P2;PMS_P1;PMS_P2;Temp;Humidity;BMP_temperature;BMP_pressure;BME280_temperature;BME280_humidity;BME280_pressure;Samples;Min_cycle;Max_cycle;Signal;HPM_P1;HPM_P2
2023/01/11 00:01:55;;;;;;;3.77;1.80;;;1.80;99.90;;;;;;5034209;28;20037;-91
2023/01/11 00:04:27;;;;;;;5.47;1.73;;;1.80;99.90;;;;;;5016725;28;20429;-91
2023/01/11 00:06:52;;;;;;;6.93;2.60;;;1.80;99.90;;;;;;5011067;28;20037;-91
2023/01/11 00:09:18;;;;;;;4.53;1.93;;;1.80;99.90;;;;;;5029835;28;20049;-91
2023/01/11 00:11:43;;;;;;;4.80;1.90;;;1.90;99.90;;;;;;5023629;28;20030;-91
2023/01/11 00:14:09;;;;;;;6.17;2.20;;;1.90;99.90;;;;;;5030353;28;20021;-91
2023/01/11 00:16:34;;;;;;;5.13;2.00;;;1.90;99.90;;;;;;5013782;28;20033;-91
2023/01/11 00:19:00;;;;;;;6.90;2.40;;;1.90;99.90;;;;;;5021946;28;20030;-92
2023/01/11 00:21:25;;;;;;;6.20;2.20;;;2.00;99.90;;;;;;5030147;28;20041;-92
2023/01/11 00:23:51;;;;;;;5.70;1.90;;;2.00;99.90;;;;;;5029954;28;20056;-91
2023/01/11 00:26:16;;;;;;;7.20;3.30;;;2.00;99.90;;;;;;5030608;28;20049;-92
2023/01/11 00:28:42;;;;;;;3.67;1.90;;;2.00;99.90;;;;;;5023563;28;20037;-91
2023/01/11 00:31:08;;;;;;;3.60;1.60;;;2.00;99.90;;;;;;5033703;28;20062;-92
2023/01/11 00:33:34;;;;;;;3.57;2.03;;;2.00;99.90;;;;;;5033424;28;20033;-91
2023/01/11 00:35:59;;;;;;;2.33;1.40;;;2.10;99.90;;;;;;5033391;28;20029;-91
2023/01/11 00:38:43;;;;;;;4.00;1.60;;;2.10;99.90;;;;;;5015427;28;20037;-92
2023/01/11 00:49:23;;;;;;;3.97;1.57;;;2.20;99.90;;;;;;5032860;28;20535;-92
2023/01/11 00:51:49;;;;;;;2.83;1.40;;;2.20;99.90;;;;;;5031243;28;20026;-92
2023/01/11 00:54:14;;;;;;;6.30;1.47;;;2.20;99.90;;;;;;5022607;28;20029;-92
2023/01/11 00:56:40;;;;;;;4.17;1.47;;;2.20;99.90;;;;;;5024949;28;20034;-92
2023/01/11 00:59:06;;;;;;;2.80;1.40;;;2.20;99.90;;;;;;5031787;28;20041;-91
2023/01/11 01:01:32;;;;;;;3.83;1.50;;;2.30;99.90;;;;;;5031925;28;20045;-91
2023/01/11 01:03:59;;;;;;;3.53;1.30;;;2.30;99.90;;;;;;5030134;28;20905;-91
2023/01/11 01:06:25;;;;;;;1.63;1.20;;;2.40;99.90;;;;;;5024064;28;20041;-91
2023/01/11 01:08:51;;;;;;;4.13;1.30;;;2.40;99.90;;;;;;5021047;28;20045;-91
2023/01/11 01:11:16;;;;;;;3.63;1.43;;;2.40;99.90;;;;;;5018118;28;20065;-91
2023/01/11 01:16:26;;;;;;;2.13;1.03;;;2.50;99.90;;;;;;5032196;28;20088;-92
2023/01/11 01:18:52;;;;;;;2.37;1.37;;;2.50;99.90;;;;;;5032127;28;20029;-91
2023/01/11 01:21:18;;;;;;;3.07;1.17;;;2.60;99.90;;;;;;5032845;28;20100;-91
2023/01/11 01:23:44;;;;;;;2.30;1.03;;;2.60;99.90;;;;;;5014731;28;20392;-92
2023/01/11 01:26:09;;;;;;;1.43;0.90;;;2.70;99.90;;;;;;5032258;28;20117;-92
2023/01/11 01:28:35;;;;;;;2.17;1.00;;;2.70;99.90;;;;;;5018622;28;20025;-92
2023/01/11 01:31:00;;;;;;;3.00;1.43;;;2.80;99.90;;;;;;5022065;28;20033;-91
2023/01/11 01:33:26;;;;;;;2.73;1.10;;;2.80;99.90;;;;;;5022246;28;20026;-92
2023/01/11 01:35:51;;;;;;;1.33;1.00;;;2.80;99.90;;;;;;5009666;28;20021;-91
2023/01/11 01:38:17;;;;;;;1.60;0.93;;;2.90;99.90;;;;;;5032530;28;20018;-92
2023/01/11 01:40:44;;;;;;;2.63;1.10;;;3.00;99.90;;;;;;5011685;28;20110;-92
2023/01/11 01:43:11;;;;;;;1.33;0.90;;;3.00;99.90;;;;;;5021393;28;20042;-92
2023/01/11 01:45:36;;;;;;;1.33;0.93;;;3.00;99.90;;;;;;5031869;28;20030;-92
2023/01/11 01:48:04;;;;;;;3.07;1.00;;;3.10;99.90;;;;;;5028378;28;20494;-92
2023/01/11 01:50:47;;;;;;;1.43;0.90;;;3.10;99.90;;;;;;5014534;28;20037;-93
2023/01/11 01:53:18;;;;;;;1.43;1.07;;;3.10;99.90;;;;;;5014635;28;20030;-92
2023/01/11 01:55:50;;;;;;;2.83;1.10;;;3.10;99.90;;;;;;5017233;28;20072;-92
2023/01/11 01:58:20;;;;;;;2.67;1.00;;;3.10;99.90;;;;;;5025269;28;20386;-93
2023/01/11 02:00:46;;;;;;;3.63;1.13;;;3.10;99.90;;;;;;5033104;28;20033;-93
2023/01/11 02:03:16;;;;;;;2.10;1.10;;;3.00;99.90;;;;;;5036689;28;20029;-92
2023/01/11 02:05:41;;;;;;;2.70;0.90;;;3.00;99.90;;;;;;5033558;28;20029;-93
2023/01/11 02:08:12;;;;;;;1.37;0.87;;;3.00;99.90;;;;;;5034585;28;20042;-92
2023/01/11 02:10:38;;;;;;;1.80;1.37;;;2.90;99.90;;;;;;5030805;28;20100;-92
2023/01/11 02:13:22;;;;;;;3.20;1.00;;;2.90;99.90;;;;;;5018311;28;20106;-92
2023/01/11 02:16:06;;;;;;;2.63;1.10;;;2.80;99.90;;;;;;5029517;28;20049;-92
2023/01/11 02:18:33;;;;;;;2.30;0.90;;;2.80;99.90;;;;;;5008088;28;20033;-92
2023/01/11 02:21:22;;;;;;;2.23;1.13;;;2.80;99.90;;;;;;5035609;28;20096;-91
2023/01/11 02:24:16;;;;;;;2.73;0.87;;;2.70;99.90;;;;;;5032245;28;20020;-92
2023/01/11 02:26:51;;;;;;;1.67;1.00;;;2.80;99.90;;;;;;5035805;28;20018;-91
2023/01/11 02:29:32;;;;;;;3.88;1.48;;;2.70;99.90;;;;;;5029764;28;20100;-92
2023/01/11 02:32:10;;;;;;;3.17;1.20;;;2.70;99.90;;;;;;5035954;28;20029;-92
2023/01/11 02:34:47;;;;;;;4.10;1.00;;;2.70;99.90;;;;;;5013628;28;20014;-92
2023/01/11 02:37:22;;;;;;;2.63;0.83;;;2.70;99.90;;;;;;5011923;28;20030;-92
2023/01/11 02:40:14;;;;;;;3.38;1.02;;;2.70;99.90;;;;;;5022806;28;20013;-91
2023/01/11 02:46:15;;;;;;;1.30;0.93;;;2.70;99.90;;;;;;5024611;28;20092;-92
2023/01/11 02:49:03;;;;;;;2.40;1.03;;;2.70;99.90;;;;;;5028943;28;20040;-92
2023/01/11 02:51:37;;;;;;;2.77;0.90;;;2.60;99.90;;;;;;5016914;28;20033;-91
2023/01/11 02:54:07;;;;;;;2.57;1.10;;;2.70;99.90;;;;;;5014835;28;20332;-92
2023/01/11 02:56:37;;;;;;;2.27;1.00;;;2.70;99.90;;;;;;5029364;28;20370;-92
2023/01/11 02:59:06;;;;;;;1.50;1.13;;;2.70;99.90;;;;;;5009965;28;20030;-92
2023/01/11 03:01:32;;;;;;;3.27;1.10;;;2.70;99.90;;;;;;5015572;28;20033;-91
2023/01/11 03:03:57;;;;;;;6.73;1.20;;;2.70;99.90;;;;;;5019927;28;20379;-92
2023/01/11 03:06:27;;;;;;;2.03;0.90;;;2.70;99.90;;;;;;5029906;28;20045;-91
2023/01/11 03:09:17;;;;;;;2.57;1.10;;;2.70;99.90;;;;;;5034191;28;20121;-92
2023/01/11 03:15:28;;;;;;;1.33;0.90;;;2.80;99.90;;;;;;5020947;28;20442;-92
2023/01/11 03:18:29;;;;;;;2.73;1.00;;;2.80;99.90;;;;;;5020376;28;20387;-92
2023/01/11 03:21:33;;;;;;;2.93;1.00;;;2.80;99.90;;;;;;5031146;28;20493;-92
2023/01/11 03:24:21;;;;;;;1.50;0.90;;;2.90;99.90;;;;;;4993204;28;20042;-91
2023/01/11 03:27:11;;;;;;;1.47;1.00;;;2.90;99.90;;;;;;5031212;28;20059;-92
2023/01/11 03:30:10;;;;;;;1.37;0.83;;;2.90;99.90;;;;;;5019374;28;20048;-92
2023/01/11 03:32:49;;;;;;;1.83;1.00;;;2.90;99.90;;;;;;5034127;28;20053;-92
2023/01/11 03:35:31;;;;;;;2.20;1.10;;;3.00;99.90;;;;;;5034494;28;20037;-91
2023/01/11 03:38:27;;;;;;;1.63;0.90;;;3.00;99.90;;;;;;5013232;28;20534;-91
2023/01/11 03:40:59;;;;;;;2.22;0.93;;;3.00;99.90;;;;;;5028736;28;20021;-91
2023/01/11 03:43:27;;;;;;;2.57;1.30;;;3.00;99.90;;;;;;5014021;28;20513;-91
2023/01/11 03:46:05;;;;;;;1.20;0.90;;;3.00;99.90;;;;;;5029101;28;20061;-92
2023/01/11 03:48:36;;;;;;;3.23;1.10;;;3.00;99.90;;;;;;5030540;28;20033;-91
2023/01/11 03:51:06;;;;;;;1.37;1.07;;;3.00;99.90;;;;;;5013864;28;20087;-92
2023/01/11 03:53:35;;;;;;;1.77;1.00;;;3.00;99.90;;;;;;5014122;28;20034;-92
2023/01/11 03:56:04;;;;;;;2.63;1.20;;;3.00;99.90;;;;;;5031439;28;20018;-93
2023/01/11 03:58:30;;;;;;;3.07;1.07;;;3.00;99.90;;;;;;5029528;28;20026;-84
2023/01/11 04:00:57;;;;;;;2.50;1.20;;;3.00;99.90;;;;;;5029166;28;20030;-84
2023/01/11 04:03:22;;;;;;;1.83;1.07;;;3.10;99.90;;;;;;5027625;28;20123;-84
2023/01/11 04:05:51;;;;;;;2.10;1.00;;;3.10;99.90;;;;;;5027843;28;20125;-84
2023/01/11 04:08:17;;;;;;;1.17;0.90;;;3.10;99.90;;;;;;5026111;28;20490;-84
2023/01/11 04:10:42;;;;;;;3.33;1.40;;;3.10;99.90;;;;;;5023298;28;20018;-83
2023/01/11 04:13:08;;;;;;;2.73;1.30;;;3.10;99.90;;;;;;5027747;28;20112;-84
2023/01/11 04:15:34;;;;;;;3.07;0.90;;;3.10;99.90;;;;;;5028245;28;20100;-83
2023/01/11 04:18:04;;;;;;;1.93;0.90;;;3.10;99.90;;;;;;5029503;28;20018;-84
2023/01/11 04:20:35;;;;;;;1.13;0.90;;;3.20;99.90;;;;;;5028241;28;20037;-83
2023/01/11 04:23:00;;;;;;;1.60;1.10;;;3.20;99.90;;;;;;5008109;28;20033;-84
2023/01/11 04:25:26;;;;;;;3.63;1.23;;;3.20;99.90;;;;;;5022845;28;20029;-84
2023/01/11 04:27:52;;;;;;;1.70;1.10;;;3.20;99.90;;;;;;5024267;28;20028;-84
2023/01/11 04:30:17;;;;;;;3.30;1.30;;;3.30;99.90;;;;;;5026781;28;20088;-84
2023/01/11 04:32:43;;;;;;;2.47;1.10;;;3.30;99.90;;;;;;5008039;28;20076;-84
2023/01/11 04:35:08;;;;;;;2.87;1.30;;;3.40;99.90;;;;;;5026627;28;20030;-83
2023/01/11 04:37:34;;;;;;;2.53;1.40;;;3.40;99.90;;;;;;5003023;28;20038;-83
2023/01/11 04:39:59;;;;;;;1.60;1.00;;;3.40;99.90;;;;;;5006502;28;20022;-83
2023/01/11 04:42:25;;;;;;;1.17;0.87;;;3.40;99.90;;;;;;5024302;28;20138;-83
2023/01/11 04:44:51;;;;;;;1.93;1.10;;;3.50;99.90;;;;;;5027705;28;20096;-83
2023/01/11 04:47:19;;;;;;;2.63;1.23;;;3.50;99.90;;;;;;5010356;28;20108;-83
2023/01/11 04:49:45;;;;;;;2.57;1.10;;;3.50;99.90;;;;;;5008588;28;20421;-82
2023/01/11 04:52:12;;;;;;;3.83;1.20;;;3.50;99.90;;;;;;5011989;28;20497;-90
2023/01/11 04:54:38;;;;;;;1.77;0.93;;;3.60;99.90;;;;;;5033250;28;20556;-90
2023/01/11 04:57:04;;;;;;;1.17;0.87;;;3.60;99.90;;;;;;5033475;28;20116;-91
2023/01/11 04:59:30;;;;;;;2.17;1.00;;;3.70;99.90;;;;;;5015219;28;20091;-90
2023/01/11 05:01:55;;;;;;;1.70;0.80;;;3.70;99.90;;;;;;5032943;28;20033;-90
2023/01/11 05:04:21;;;;;;;2.00;0.93;;;3.70;99.90;;;;;;5032904;28;20026;-90
2023/01/11 05:06:46;;;;;;;1.57;0.90;;;3.70;99.90;;;;;;5015054;28;20323;-90
2023/01/11 05:09:14;;;;;;;1.27;1.03;;;3.70;99.90;;;;;;5033027;28;20461;-90
2023/01/11 05:11:40;;;;;;;1.97;1.10;;;3.70;99.90;;;;;;5028290;28;20058;-91
2023/01/11 05:14:05;;;;;;;1.33;1.00;;;3.70;99.90;;;;;;5019761;28;20068;-92
2023/01/11 05:16:32;;;;;;;2.03;1.10;;;3.70;99.90;;;;;;5013426;28;20116;-92
2023/01/11 05:18:59;;;;;;;1.43;1.03;;;3.70;99.90;;;;;;5026585;28;20033;-91
2023/01/11 05:21:30;;;;;;;2.37;1.10;;;3.80;99.90;;;;;;5025134;28;20092;-91
2023/01/11 05:23:57;;;;;;;1.87;0.90;;;3.80;99.90;;;;;;5023158;28;20025;-91
2023/01/11 05:26:28;;;;;;;2.17;1.00;;;3.80;99.90;;;;;;5028200;28;20014;-91
2023/01/11 05:28:56;;;;;;;2.17;0.93;;;3.80;99.90;;;;;;5025015;28;20029;-91
2023/01/11 05:31:22;;;;;;;2.33;1.10;;;3.80;99.90;;;;;;5028297;28;20060;-91
2023/01/11 05:33:50;;;;;;;1.83;1.13;;;3.70;99.90;;;;;;5026640;28;20110;-89
2023/01/11 05:36:19;;;;;;;3.87;1.10;;;3.80;99.90;;;;;;5039979;28;20037;-89
2023/01/11 05:38:46;;;;;;;2.10;0.93;;;3.80;99.90;;;;;;5034695;28;20484;-89
2023/01/11 05:41:12;;;;;;;2.13;1.10;;;3.80;99.90;;;;;;5015338;28;20182;-90
2023/01/11 05:46:23;;;;;;;1.93;1.30;;;3.80;99.90;;;;;;5033223;28;20028;-89
2023/01/11 05:48:49;;;;;;;3.00;1.40;;;3.80;99.90;;;;;;5032406;28;20022;-89
2023/01/11 05:51:15;;;;;;;3.27;1.40;;;3.80;99.90;;;;;;5029773;28;20030;-84
2023/01/11 05:53:41;;;;;;;1.80;1.10;;;3.80;99.90;;;;;;5005668;28;20036;-85
2023/01/11 05:56:06;;;;;;;2.80;1.33;;;3.80;99.90;;;;;;5021355;28;20033;-84
2023/01/11 05:58:32;;;;;;;2.63;1.70;;;3.80;99.90;;;;;;5026847;28;20021;-83
2023/01/11 06:00:57;;;;;;;4.83;2.33;;;3.80;99.90;;;;;;5014680;28;20032;-89
2023/01/11 06:03:24;;;;;;;6.97;3.00;;;3.80;99.90;;;;;;5030427;28;20116;-89
2023/01/11 06:05:51;;;;;;;5.37;3.33;;;3.80;99.90;;;;;;5032985;28;20423;-92
2023/01/11 06:08:16;;;;;;;6.60;4.07;;;3.80;99.90;;;;;;5029307;28;20477;-92
2023/01/11 06:10:45;;;;;;;7.37;3.80;;;3.90;99.90;;;;;;5032629;28;20044;-92
2023/01/11 06:13:25;;;;;;;4.17;2.70;;;3.90;99.90;;;;;;5031197;28;20174;-92
2023/01/11 06:15:56;;;;;;;4.50;2.43;;;3.90;99.90;;;;;;5028891;28;20119;-92
2023/01/11 06:18:22;;;;;;;2.67;1.60;;;3.90;99.90;;;;;;5007526;28;20021;-84
2023/01/11 06:20:53;;;;;;;3.70;1.67;;;3.90;99.90;;;;;;5022712;28;20037;-92
2023/01/11 06:23:19;;;;;;;3.20;1.53;;;3.90;99.90;;;;;;5052784;28;20030;-92
2023/01/11 06:25:45;;;;;;;1.60;1.10;;;3.90;99.90;;;;;;5031041;28;20030;-91
2023/01/11 06:28:11;;;;;;;2.43;1.30;;;3.90;99.90;;;;;;5041781;28;20036;-91
2023/01/11 06:30:37;;;;;;;3.57;1.47;;;3.90;99.90;;;;;;5028881;28;20022;-92
2023/01/11 06:33:05;;;;;;;2.60;1.80;;;4.00;99.90;;;;;;5029604;28;20033;-92
2023/01/11 06:35:42;;;;;;;3.73;1.53;;;4.00;99.90;;;;;;5010572;28;20045;-92
2023/01/11 06:38:12;;;;;;;2.53;1.53;;;4.00;99.90;;;;;;5030508;28;20026;-89
2023/01/11 06:40:39;;;;;;;2.17;1.40;;;4.00;99.90;;;;;;5031602;28;20397;-89
2023/01/11 06:43:06;;;;;;;2.57;1.50;;;3.90;99.90;;;;;;5034464;28;20021;-89
2023/01/11 06:45:32;;;;;;;2.47;1.47;;;4.00;99.90;;;;;;5033828;28;20039;-89
2023/01/11 06:47:58;;;;;;;1.77;1.07;;;4.00;99.90;;;;;;5028425;28;20033;-89
2023/01/11 06:50:23;;;;;;;3.53;1.20;;;3.90;99.90;;;;;;5027098;28;20489;-89
2023/01/11 06:52:54;;;;;;;1.53;1.10;;;4.00;99.90;;;;;;5031786;28;20029;-89
2023/01/11 06:55:20;;;;;;;2.43;1.30;;;4.00;99.90;;;;;;5025377;28;20032;-91
2023/01/11 06:57:46;;;;;;;2.60;1.10;;;4.00;99.90;;;;;;5033350;28;20018;-92
2023/01/11 07:00:12;;;;;;;1.80;1.00;;;4.00;99.90;;;;;;5016525;28;20025;-91
2023/01/11 07:02:37;;;;;;;3.50;1.30;;;4.00;99.90;;;;;;5034766;28;20111;-93
2023/01/11 07:05:03;;;;;;;2.07;1.10;;;4.00;99.90;;;;;;5027842;28;20042;-85
2023/01/11 07:07:29;;;;;;;2.37;0.90;;;4.10;99.90;;;;;;4996618;28;20513;-86
2023/01/11 07:09:54;;;;;;;2.20;1.27;;;4.10;99.90;;;;;;4999896;28;20042;-86
2023/01/11 07:12:20;;;;;;;1.87;1.10;;;4.10;99.90;;;;;;5017287;28;20025;-86
2023/01/11 07:14:45;;;;;;;2.30;0.97;;;4.10;99.90;;;;;;5020869;28;20036;-85
2023/01/11 07:17:11;;;;;;;1.07;0.90;;;4.20;99.90;;;;;;5016266;28;20072;-86
2023/01/11 07:19:36;;;;;;;1.10;1.00;;;4.20;99.90;;;;;;5013812;28;20071;-86
2023/01/11 07:22:02;;;;;;;3.03;1.10;;;4.30;99.90;;;;;;5012842;28;20386;-86
2023/01/11 07:24:28;;;;;;;2.27;1.10;;;4.30;99.90;;;;;;5015158;28;20972;-83
2023/01/11 07:26:55;;;;;;;1.53;0.93;;;4.40;99.90;;;;;;5021571;28;20025;-85
2023/01/11 07:29:21;;;;;;;2.30;1.50;;;4.40;99.90;;;;;;5022590;28;20029;-85
2023/01/11 07:31:46;;;;;;;1.90;1.30;;;4.50;99.90;;;;;;5024495;28;20021;-85
2023/01/11 07:34:12;;;;;;;3.23;1.70;;;4.50;99.90;;;;;;5022684;28;20028;-86
2023/01/11 07:36:38;;;;;;;2.47;1.70;;;4.60;99.90;;;;;;5023170;28;20033;-85
2023/01/11 07:39:05;;;;;;;3.27;2.30;;;4.60;99.90;;;;;;5020383;28;20382;-86
2023/01/11 07:44:16;;;;;;;2.53;1.40;;;4.70;99.90;;;;;;5021507;28;20033;-86
2023/01/11 07:46:41;;;;;;;2.97;1.27;;;4.80;99.90;;;;;;5036020;28;20029;-92
2023/01/11 07:49:07;;;;;;;2.20;1.17;;;4.80;99.90;;;;;;5008059;28;20032;-92
2023/01/11 07:51:32;;;;;;;1.33;0.90;;;4.80;99.90;;;;;;5028687;28;20155;-92
2023/01/11 07:54:01;;;;;;;0.93;0.83;;;4.90;99.90;;;;;;5027191;28;20060;-91
2023/01/11 07:56:27;;;;;;;2.20;1.00;;;4.90;99.90;;;;;;5026920;28;20021;-92
2023/01/11 07:58:53;;;;;;;2.33;1.00;;;5.00;99.90;;;;;;5027107;28;20021;-92
2023/01/11 08:01:19;;;;;;;1.93;1.33;;;5.00;99.90;;;;;;5032938;28;20067;-92
2023/01/11 08:03:45;;;;;;;2.50;1.50;;;5.10;99.90;;;;;;5032441;28;20017;-92
2023/01/11 08:06:10;;;;;;;2.87;1.70;;;5.10;99.90;;;;;;5032595;28;20491;-92
2023/01/11 08:08:36;;;;;;;2.67;1.50;;;5.10;99.90;;;;;;5033755;28;20046;-93
2023/01/11 08:16:29;;;;;;;2.73;1.50;;;5.20;99.90;;;;;;5027200;28;20032;-84
2023/01/11 08:18:55;;;;;;;4.83;1.47;;;5.20;99.90;;;;;;5022525;28;20030;-84
2023/01/11 08:21:20;;;;;;;2.40;1.00;;;5.30;99.90;;;;;;5022459;28;20025;-85
2023/01/11 08:23:46;;;;;;;2.33;1.30;;;5.40;99.90;;;;;;5021519;28;20022;-86
2023/01/11 08:26:16;;;;;;;2.33;1.10;;;5.40;99.90;;;;;;5020164;28;20087;-85
2023/01/11 08:28:44;;;;;;;2.77;1.00;;;5.50;99.90;;;;;;5020360;28;20754;-85
2023/01/11 08:31:10;;;;;;;1.37;1.00;;;5.60;99.90;;;;;;5025337;28;20044;-91
2023/01/11 08:33:35;;;;;;;3.23;1.07;;;5.60;99.90;;;;;;5029018;28;20482;-92
2023/01/11 08:36:11;;;;;;;1.97;0.97;;;5.70;99.90;;;;;;5030755;28;20396;-93
2023/01/11 08:38:37;;;;;;;1.93;0.90;;;5.70;99.90;;;;;;5029337;28;20018;-93
2023/01/11 08:41:09;;;;;;;2.90;1.00;;;5.70;99.90;;;;;;5014555;28;20505;-93
2023/01/11 08:43:38;;;;;;;2.70;1.00;;;5.70;99.90;;;;;;5012007;28;20366;-93
2023/01/11 08:46:04;;;;;;;1.70;1.00;;;5.70;99.90;;;;;;5033255;28;21415;-93
2023/01/11 08:48:30;;;;;;;1.63;1.00;;;5.80;99.90;;;;;;5015278;28;20029;-93
2023/01/11 08:50:55;;;;;;;1.50;0.90;;;5.90;99.90;;;;;;5032666;28;20112;-94
2023/01/11 08:53:21;;;;;;;1.10;0.87;;;5.90;99.90;;;;;;5032134;28;20104;-92
2023/01/11 08:55:47;;;;;;;1.60;1.00;;;6.00;99.90;;;;;;5023053;28;20022;-94
2023/01/11 08:58:13;;;;;;;2.10;1.07;;;6.00;99.90;;;;;;5030252;28;20116;-93
2023/01/11 09:00:41;;;;;;;2.33;1.00;;;6.10;99.90;;;;;;5033531;28;20048;-93
2023/01/11 09:03:07;;;;;;;1.20;0.90;;;6.10;99.90;;;;;;5023483;28;20040;-86
2023/01/11 09:05:33;;;;;;;3.53;0.83;;;6.20;99.90;;;;;;5022864;28;20061;-86
2023/01/11 09:07:59;;;;;;;1.70;0.83;;;6.20;99.90;;;;;;5000248;28;20069;-84
2023/01/11 09:10:25;;;;;;;3.40;1.07;;;6.30;99.90;;;;;;5011946;28;20117;-84
2023/01/11 09:12:52;;;;;;;3.67;0.90;;;6.40;99.90;;;;;;5011101;28;20397;-84
2023/01/11 09:15:18;;;;;;;4.17;1.00;;;6.50;99.90;;;;;;5011239;28;20038;-84
2023/01/11 09:17:45;;;;;;;1.13;0.80;;;6.60;99.90;;;;;;5012766;28;20072;-84
2023/01/11 09:20:11;;;;;;;1.77;1.03;;;6.70;99.90;;;;;;5012801;28;20018;-84
2023/01/11 09:22:37;;;;;;;2.23;1.00;;;6.90;99.90;;;;;;5010988;28;20021;-84
2023/01/11 09:25:02;;;;;;;1.27;0.73;;;7.00;99.90;;;;;;5013607;28;20033;-84
2023/01/11 09:27:28;;;;;;;1.30;0.80;;;7.20;99.90;;;;;;5016282;28;20148;-84
2023/01/11 09:29:53;;;;;;;3.33;0.90;;;7.40;99.90;;;;;;5012253;28;20116;-85
2023/01/11 09:32:19;;;;;;;2.03;0.80;;;7.50;99.90;;;;;;5011248;28;20348;-84
2023/01/11 09:34:46;;;;;;;2.57;1.07;;;7.50;99.90;;;;;;5010008;28;20048;-84
2023/01/11 09:37:11;;;;;;;2.33;0.90;;;7.60;99.90;;;;;;5016584;28;20021;-70
2023/01/11 09:39:38;;;;;;;1.50;0.90;;;7.60;99.90;;;;;;5012139;28;20395;-81
2023/01/11 09:42:31;;;;;;;3.40;0.93;;;7.60;99.90;;;;;;5013895;28;20040;-82
2023/01/11 09:45:14;;;;;;;1.13;0.90;;;7.70;99.90;;;;;;5008793;28;20018;-81
2023/01/11 09:48:02;;;;;;;3.97;0.90;;;7.80;99.90;;;;;;5013966;28;20478;-81
2023/01/11 09:50:32;;;;;;;2.07;1.23;;;7.90;99.90;;;;;;5009234;28;20052;-81
2023/01/11 09:53:08;;;;;;;2.37;1.33;;;8.00;99.90;;;;;;5011754;28;20089;-81
2023/01/11 09:55:39;;;;;;;2.77;1.43;;;8.10;99.90;;;;;;5009095;28;20026;-81
2023/01/11 09:58:31;;;;;;;1.57;1.03;;;8.20;99.90;;;;;;5011777;28;20038;-81
2023/01/11 10:01:18;;;;;;;2.57;1.37;;;8.30;99.90;;;;;;5008693;28;20017;-81
2023/01/11 10:04:24;;;;;;;2.30;1.10;;;8.30;99.90;;;;;;5010913;28;20025;-81
2023/01/11 10:07:13;;;;;;;2.58;1.05;;;8.30;99.90;;;;;;4922746;28;20061;-89
2023/01/11 10:10:20;;;;;;;1.63;1.10;;;8.40;99.90;;;;;;5009671;28;20083;-89
2023/01/11 10:13:15;;;;;;;2.40;1.50;;;8.60;99.90;;;;;;5029090;28;20071;-89
2023/01/11 10:15:52;;;;;;;5.47;1.20;;;8.70;99.90;;;;;;5046655;28;20175;-89
2023/01/11 10:18:36;;;;;;;1.57;1.23;;;8.90;99.90;;;;;;5045108;28;20021;-88
2023/01/11 10:21:18;;;;;;;2.57;1.60;;;9.00;99.90;;;;;;5051461;28;20040;-90
2023/01/11 10:24:05;;;;;;;3.20;1.33;;;9.10;99.90;;;;;;5013432;28;20093;-89
2023/01/11 10:26:38;;;;;;;3.20;1.40;;;9.20;99.90;;;;;;5031554;28;20021;-89
2023/01/11 10:34:55;;;;;;;1.40;1.00;;;9.40;99.90;;;;;;5028208;28;20022;-89
2023/01/11 10:37:45;;;;;;;1.87;1.40;;;9.50;99.90;;;;;;5029811;28;20025;-90
2023/01/11 10:41:01;;;;;;;2.63;1.30;;;9.60;99.90;;;;;;5028686;28;20068;-89
2023/01/11 10:43:25;;;;;;;3.53;1.40;;;9.60;99.90;;;;;;5017249;28;20912;-81
2023/01/11 10:45:54;;;;;;;2.13;1.00;;;9.70;99.90;;;;;;5019091;28;21351;-81
2023/01/11 10:48:35;;;;;;;1.17;0.80;;;9.80;99.90;;;;;;5020499;28;20033;-82
2023/01/11 10:51:30;;;;;;;2.37;0.80;;;9.90;99.90;;;;;;5017185;28;20057;-82
2023/01/11 10:54:15;;;;;;;1.53;0.87;;;10.00;99.90;;;;;;5003857;28;20056;-81
2023/01/11 10:57:06;;;;;;;3.60;1.10;;;10.10;99.90;;;;;;5016880;28;20041;-81
2023/01/11 11:00:03;;;;;;;1.23;0.90;;;10.20;99.90;;;;;;5021886;28;20025;-82
2023/01/11 11:03:06;;;;;;;1.93;0.80;;;10.30;99.90;;;;;;5015134;28;20026;-81
2023/01/11 11:05:38;;;;;;;2.87;0.80;;;10.50;99.90;;;;;;5016124;28;21395;-81
2023/01/11 11:08:17;;;;;;;5.30;0.93;;;10.50;99.90;;;;;;5008860;28;20120;-89
2023/01/11 11:10:48;;;;;;;2.83;0.87;;;10.60;99.90;;;;;;5031688;28;20013;-89
2023/01/11 11:13:44;;;;;;;2.27;1.43;;;10.60;99.90;;;;;;5013290;28;20026;-89
2023/01/11 11:16:22;;;;;;;2.77;0.90;;;10.70;99.90;;;;;;5011828;28;20420;-89
2023/01/11 11:18:49;;;;;;;2.00;0.80;;;10.80;99.90;;;;;;5024324;28;20009;-89
2023/01/11 11:21:24;;;;;;;2.43;0.90;;;10.90;99.90;;;;;;5025144;28;20399;-89
2023/01/11 11:24:01;;;;;;;;;;;10.90;99.90;;;;;;5030453;28;20386;-89
2023/01/11 11:26:36;;;;;;;1.55;1.05;;;10.90;99.90;;;;;;5027313;28;19911;-89
2023/01/11 11:29:08;;;;;;;1.65;0.88;;;10.90;99.90;;;;;;5026489;28;20362;-89
2023/01/11 11:31:39;;;;;;;1.50;0.80;;;11.00;99.90;;;;;;5025709;28;20017;-89
2023/01/11 11:34:07;;;;;;;1.40;0.90;;;11.00;99.90;;;;;;5011040;28;20463;-89
2023/01/11 11:36:44;;;;;;;2.65;0.98;;;11.00;99.90;;;;;;5024777;28;20772;-89
2023/01/11 11:39:20;;;;;;;1.00;0.80;;;11.10;99.90;;;;;;5034751;28;20021;-89
2023/01/11 11:41:46;;;;;;;4.00;1.05;;;11.10;99.90;;;;;;5020878;28;20022;-89
2023/01/11 11:44:20;;;;;;;4.38;1.23;;;11.10;99.90;;;;;;5015381;28;20536;-89
2023/01/11 11:47:16;;;;;;;2.10;1.33;;;11.10;99.90;;;;;;5022727;28;20119;-89
2023/01/11 11:49:42;;;;;;;3.60;0.90;;;11.20;99.90;;;;;;5017683;28;20043;-89
2023/01/11 11:52:13;;;;;;;2.58;0.90;;;11.20;99.90;;;;;;5026829;28;20338;-89
2023/01/11 11:54:47;;;;;;;3.55;0.80;;;11.20;99.90;;;;;;5027137;28;20041;-89
2023/01/11 11:57:26;;;;;;;1.83;0.73;;;11.20;99.90;;;;;;5024452;28;20022;-89
2023/01/11 12:00:07;;;;;;;1.65;0.80;;;11.20;99.90;;;;;;5027596;28;20103;-89
2023/01/11 12:02:36;;;;;;;1.42;1.00;;;11.20;99.90;;;;;;5011062;28;20021;-89
2023/01/11 12:05:08;;;;;;;2.42;1.08;;;11.10;99.90;;;;;;5020182;28;20072;-82
2023/01/11 12:07:36;;;;;;;0.75;0.75;;;11.10;99.90;;;;;;5015944;28;20076;-82
2023/01/11 12:10:08;;;;;;;1.38;0.70;;;11.10;99.90;;;;;;5016600;28;20025;-82
2023/01/11 12:12:51;;;;;;;0.60;0.60;;;11.10;99.90;;;;;;5018990;28;20040;-82
2023/01/11 12:15:25;;;;;;;3.40;1.58;;;11.10;99.90;;;;;;5019637;28;20022;-81
2023/01/11 12:17:51;;;;;;;1.45;0.80;;;11.10;99.90;;;;;;5008689;28;20014;-82
2023/01/11 12:20:22;;;;;;;1.10;0.70;;;11.00;99.90;;;;;;5015422;28;20698;-81
2023/01/11 12:23:12;;;;;;;1.48;0.80;;;11.00;99.90;;;;;;5013305;28;20037;-82
2023/01/11 12:26:02;;;;;;;0.95;0.73;;;11.00;99.90;;;;;;5003445;28;20082;-81
2023/01/11 12:28:57;;;;;;;2.72;0.80;;;11.00;99.90;;;;;;4984924;28;20379;-81
2023/01/11 12:31:35;;;;;;;0.90;0.70;;;11.00;99.90;;;;;;5020655;28;20036;-81
2023/01/11 12:34:22;;;;;;;1.77;0.83;;;11.10;99.90;;;;;;5020297;28;20025;-82
2023/01/11 12:37:24;;;;;;;1.15;0.70;;;11.10;99.90;;;;;;5013111;28;20034;-81
2023/01/11 12:40:20;;;;;;;0.60;0.60;;;11.10;99.90;;;;;;5017233;28;20033;-82
2023/01/11 12:42:55;;;;;;;;;;;11.10;99.90;;;;;;5015631;28;20028;-90
2023/01/11 12:45:54;;;;;;;1.17;0.80;;;11.10;99.90;;;;;;5023235;28;20395;-89
2023/01/11 12:48:22;;;;;;;3.30;0.80;;;11.00;99.90;;;;;;5006904;28;20033;-89
2023/01/11 12:51:20;;;;;;;1.87;1.00;;;11.00;99.90;;;;;;5008959;28;20061;-90
2023/01/11 12:54:01;;;;;;;2.63;1.20;;;11.00;99.90;;;;;;5003072;28;21072;-89
2023/01/11 12:57:01;;;;;;;2.00;0.50;;;10.90;99.90;;;;;;5007857;28;20095;-90
2023/01/11 12:59:53;;;;;;;1.38;0.77;;;10.90;99.90;;;;;;4957829;28;20081;-88
2023/01/11 13:02:57;;;;;;;0.60;0.60;;;10.90;99.90;;;;;;5013279;28;20041;-89
2023/01/11 13:05:32;;;;;;;2.55;0.50;;;11.00;99.90;;;;;;5014732;28;20032;-89
2023/01/11 13:08:24;;;;;;;0.80;0.70;;;11.10;99.90;;;;;;5007406;28;20041;-89
2023/01/11 13:11:06;;;;;;;0.57;0.50;;;11.10;99.90;;;;;;5016263;28;20033;-87
2023/01/11 13:13:59;;;;;;;1.07;0.57;;;11.00;99.90;;;;;;5017626;28;20037;-88
2023/01/11 13:17:00;;;;;;;0.77;0.50;;;11.00;99.90;;;;;;5020734;28;20104;-89
2023/01/11 13:19:47;;;;;;;0.50;0.50;;;11.00;99.90;;;;;;5015015;28;20040;-89
2023/01/11 13:22:19;;;;;;;0.50;0.50;;;10.90;99.90;;;;;;5007147;28;20026;-89
2023/01/11 13:24:50;;;;;;;1.53;0.80;;;11.00;99.90;;;;;;5022189;28;20064;-89
2023/01/11 13:27:21;;;;;;;0.98;0.68;;;11.00;99.90;;;;;;5009904;28;20034;-88
2023/01/11 13:29:50;;;;;;;0.83;0.60;;;11.00;99.90;;;;;;5025494;28;20033;-89
2023/01/11 13:32:22;;;;;;;0.85;0.60;;;11.00;99.90;;;;;;5025598;28;20030;-89
2023/01/11 13:34:53;;;;;;;0.45;0.45;;;11.00;99.90;;;;;;5026498;28;20128;-89
2023/01/11 13:37:28;;;;;;;1.48;0.60;;;11.00;99.90;;;;;;5024763;28;20060;-82
2023/01/11 13:39:58;;;;;;;;;;;11.00;99.90;;;;;;5001455;28;20053;-82
2023/01/11 13:42:34;;;;;;;1.27;0.67;;;10.90;99.90;;;;;;5000998;28;19912;-82
2023/01/11 13:45:12;;;;;;;3.00;0.60;;;11.00;99.90;;;;;;5000262;28;20041;-82
2023/01/11 13:47:46;;;;;;;2.27;0.60;;;11.00;99.90;;;;;;5020040;28;21393;-82
2023/01/11 13:50:27;;;;;;;2.50;0.70;;;10.90;99.90;;;;;;5018289;28;20044;-81
2023/01/11 13:53:34;;;;;;;1.03;0.50;;;10.90;99.90;;;;;;5024910;28;20124;-82
2023/01/11 13:56:08;;;;;;;0.70;0.50;;;10.90;99.90;;;;;;5024963;28;20354;-88
2023/01/11 13:58:36;;;;;;;0.68;0.60;;;10.90;99.90;;;;;;5023864;28;20100;-89